sensor_id;sensor_type;location;lat;lon;timestamp;P1;durP1;ratioP1;P2;durP2;ratioP2
15246;SDS011;7726;48.820;9.248;2022-12-07T00:00:21;7.27;;;5.53;;
15246;SDS011;7726;48.820;9.248;2022-12-07T00:02:49;5.20;;;4.70;;
15246;SDS011;7726;48.820;9.248;2022-12-07T00:05:17;6.80;;;5.37;;
15246;SDS011;7726;48.820;9.248;2022-12-07T00:07:44;7.07;;;5.13;;
15246;SDS011;7726;48.820;9.248;2022-12-07T00:10:11;5.63;;;4.80;;
15246;SDS011;7726;48.820;9.248;2022-12-07T00:12:38;6.37;;;5.60;;
15246;SDS011;7726;48.820;9.248;2022-12-07T00:15:06;7.77;;;5.90;;
15246;SDS011;7726;48.820;9.248;2022-12-07T00:17:33;7.47;;;5.47;;
15246;SDS011;7726;48.820;9.248;2022-12-07T00:20:00;9.70;;;5.90;;
15246;SDS011;7726;48.820;9.248;2022-12-07T00:22:29;7.93;;;6.07;;
15246;SDS011;7726;48.820;9.248;2022-12-07T00:24:56;6.30;;;5.70;;
15246;SDS011;7726;48.820;9.248;2022-12-07T00:27:23;6.73;;;5.80;;
15246;SDS011;7726;48.820;9.248;2022-12-07T00:29:50;6.43;;;5.73;;
15246;SDS011;7726;48.820;9.248;2022-12-07T00:32:17;5.70;;;5.03;;
15246;SDS011;7726;48.820;9.248;2022-12-07T00:37:13;6.53;;;5.83;;
15246;SDS011;7726;48.820;9.248;2022-12-07T00:39:41;7.43;;;5.53;;
15246;SDS011;7726;48.820;9.248;2022-12-07T00:42:08;7.30;;;6.00;;
15246;SDS011;7726;48.820;9.248;2022-12-07T00:44:36;7.70;;;5.77;;
15246;SDS011;7726;48.820;9.248;2022-12-07T00:47:03;6.07;;;5.47;;
15246;SDS011;7726;48.820;9.248;2022-12-07T00:49:30;7.73;;;6.07;;
15246;SDS011;7726;48.820;9.248;2022-12-07T00:51:57;8.70;;;6.20;;
15246;SDS011;7726;48.820;9.248;2022-12-07T00:54:24;6.50;;;5.73;;
15246;SDS011;7726;48.820;9.248;2022-12-07T00:56:53;7.83;;;5.90;;
15246;SDS011;7726;48.820;9.248;2022-12-07T00:59:20;9.47;;;6.30;;
15246;SDS011;7726;48.820;9.248;2022-12-07T01:01:47;6.17;;;5.57;;
15246;SDS011;7726;48.820;9.248;2022-12-07T01:04:14;7.77;;;5.63;;
15246;SDS011;7726;48.820;9.248;2022-12-07T01:06:41;7.33;;;5.97;;
15246;SDS011;7726;48.820;9.248;2022-12-07T01:09:08;8.50;;;6.60;;
15246;SDS011;7726;48.820;9.248;2022-12-07T01:11:35;7.13;;;6.00;;
15246;SDS011;7726;48.820;9.248;2022-12-07T01:14:04;8.30;;;5.97;;
15246;SDS011;7726;48.820;9.248;2022-12-07T01:16:31;7.27;;;6.10;;
15246;SDS011;7726;48.820;9.248;2022-12-07T01:18:58;6.63;;;5.87;;
15246;SDS011;7726;48.820;9.248;2022-12-07T01:21:27;7.07;;;6.37;;
15246;SDS011;7726;48.820;9.248;2022-12-07T01:23:54;7.23;;;6.43;;
15246;SDS011;7726;48.820;9.248;2022-12-07T01:26:23;7.60;;;6.50;;
15246;SDS011;7726;48.820;9.248;2022-12-07T01:28:51;9.50;;;6.13;;
15246;SDS011;7726;48.820;9.248;2022-12-07T01:31:22;7.50;;;6.23;;
15246;SDS011;7726;48.820;9.248;2022-12-07T01:33:50;7.07;;;6.37;;
15246;SDS011;7726;48.820;9.248;2022-12-07T01:36:18;7.47;;;6.13;;
15246;SDS011;7726;48.820;9.248;2022-12-07T01:38:47;7.47;;;6.60;;
15246;SDS011;7726;48.820;9.248;2022-12-07T01:41:16;6.83;;;6.10;;
15246;SDS011;7726;48.820;9.248;2022-12-07T01:46:26;8.23;;;5.83;;
15246;SDS011;7726;48.820;9.248;2022-12-07T01:48:54;7.80;;;6.77;;
15246;SDS011;7726;48.820;9.248;2022-12-07T01:51:21;8.23;;;6.83;;
15246;SDS011;7726;48.820;9.248;2022-12-07T01:53:48;7.10;;;6.40;;
15246;SDS011;7726;48.820;9.248;2022-12-07T01:56:17;7.17;;;6.07;;
15246;SDS011;7726;48.820;9.248;2022-12-07T01:58:45;8.93;;;6.03;;
15246;SDS011;7726;48.820;9.248;2022-12-07T02:01:12;8.50;;;6.87;;
15246;SDS011;7726;48.820;9.248;2022-12-07T02:03:42;9.27;;;6.40;;
15246;SDS011;7726;48.820;9.248;2022-12-07T02:06:10;7.33;;;5.90;;
15246;SDS011;7726;48.820;9.248;2022-12-07T02:08:38;7.60;;;6.77;;
15246;SDS011;7726;48.820;9.248;2022-12-07T02:11:05;9.17;;;6.87;;
15246;SDS011;7726;48.820;9.248;2022-12-07T02:13:34;9.23;;;7.00;;
15246;SDS011;7726;48.820;9.248;2022-12-07T02:16:08;8.73;;;6.73;;
15246;SDS011;7726;48.820;9.248;2022-12-07T02:18:41;8.00;;;6.57;;
15246;SDS011;7726;48.820;9.248;2022-12-07T02:21:13;8.50;;;6.53;;
15246;SDS011;7726;48.820;9.248;2022-12-07T02:23:50;7.43;;;6.37;;
15246;SDS011;7726;48.820;9.248;2022-12-07T02:26:38;8.20;;;6.37;;
15246;SDS011;7726;48.820;9.248;2022-12-07T02:29:11;6.83;;;6.13;;
15246;SDS011;7726;48.820;9.248;2022-12-07T02:31:42;6.90;;;6.00;;
15246;SDS011;7726;48.820;9.248;2022-12-07T02:34:11;7.77;;;6.83;;
15246;SDS011;7726;48.820;9.248;2022-12-07T02:36:42;7.50;;;5.97;;
15246;SDS011;7726;48.820;9.248;2022-12-07T02:39:14;7.90;;;6.47;;
15246;SDS011;7726;48.820;9.248;2022-12-07T02:41:43;10.37;;;7.27;;
15246;SDS011;7726;48.820;9.248;2022-12-07T02:44:15;9.57;;;6.57;;
15246;SDS011;7726;48.820;9.248;2022-12-07T02:46:44;7.93;;;6.63;;
15246;SDS011;7726;48.820;9.248;2022-12-07T02:49:14;7.40;;;6.10;;
15246;SDS011;7726;48.820;9.248;2022-12-07T02:51:41;7.60;;;5.97;;
15246;SDS011;7726;48.820;9.248;2022-12-07T02:54:10;7.73;;;6.10;;
15246;SDS011;7726;48.820;9.248;2022-12-07T02:56:39;9.20;;;6.50;;
15246;SDS011;7726;48.820;9.248;2022-12-07T02:59:13;6.67;;;5.93;;
15246;SDS011;7726;48.820;9.248;2022-12-07T03:01:44;8.57;;;6.50;;
15246;SDS011;7726;48.820;9.248;2022-12-07T03:04:18;10.53;;;6.57;;
15246;SDS011;7726;48.820;9.248;2022-12-07T03:06:48;7.40;;;6.20;;
15246;SDS011;7726;48.820;9.248;2022-12-07T03:09:18;8.20;;;6.30;;
15246;SDS011;7726;48.820;9.248;2022-12-07T03:11:47;7.77;;;6.40;;
15246;SDS011;7726;48.820;9.248;2022-12-07T03:14:16;5.93;;;5.30;;
15246;SDS011;7726;48.820;9.248;2022-12-07T03:16:47;11.07;;;6.27;;
15246;SDS011;7726;48.820;9.248;2022-12-07T03:19:17;7.73;;;6.43;;
15246;SDS011;7726;48.820;9.248;2022-12-07T03:21:46;8.40;;;6.80;;
15246;SDS011;7726;48.820;9.248;2022-12-07T03:24:15;7.10;;;6.03;;
15246;SDS011;7726;48.820;9.248;2022-12-07T03:26:46;6.97;;;5.97;;
15246;SDS011;7726;48.820;9.248;2022-12-07T03:29:16;7.77;;;6.30;;
15246;SDS011;7726;48.820;9.248;2022-12-07T03:31:46;7.00;;;5.97;;
15246;SDS011;7726;48.820;9.248;2022-12-07T03:34:16;10.57;;;6.87;;
15246;SDS011;7726;48.820;9.248;2022-12-07T03:36:45;8.43;;;5.87;;
15246;SDS011;7726;48.820;9.248;2022-12-07T03:39:16;7.97;;;6.27;;
15246;SDS011;7726;48.820;9.248;2022-12-07T03:41:44;6.87;;;6.07;;
15246;SDS011;7726;48.820;9.248;2022-12-07T03:44:11;6.90;;;5.57;;
15246;SDS011;7726;48.820;9.248;2022-12-07T03:46:41;6.80;;;6.10;;
15246;SDS011;7726;48.820;9.248;2022-12-07T03:49:12;7.17;;;5.83;;
15246;SDS011;7726;48.820;9.248;2022-12-07T03:51:42;6.67;;;5.87;;
15246;SDS011;7726;48.820;9.248;2022-12-07T03:54:11;8.90;;;6.60;;
15246;SDS011;7726;48.820;9.248;2022-12-07T03:56:40;8.87;;;6.40;;
15246;SDS011;7726;48.820;9.248;2022-12-07T03:59:09;8.93;;;6.60;;
15246;SDS011;7726;48.820;9.248;2022-12-07T04:01:36;8.03;;;5.97;;
15246;SDS011;7726;48.820;9.248;2022-12-07T04:04:03;7.73;;;6.57;;
15246;SDS011;7726;48.820;9.248;2022-12-07T04:06:32;9.90;;;6.77;;
15246;SDS011;7726;48.820;9.248;2022-12-07T04:08:59;7.60;;;6.47;;
15246;SDS011;7726;48.820;9.248;2022-12-07T04:11:26;6.50;;;5.50;;
15246;SDS011;7726;48.820;9.248;2022-12-07T04:13:53;8.63;;;6.70;;
15246;SDS011;7726;48.820;9.248;2022-12-07T04:16:38;7.30;;;6.03;;
15246;SDS011;7726;48.820;9.248;2022-12-07T04:19:05;7.10;;;5.90;;
15246;SDS011;7726;48.820;9.248;2022-12-07T04:21:34;9.03;;;6.30;;
15246;SDS011;7726;48.820;9.248;2022-12-07T04:24:01;6.63;;;5.87;;
15246;SDS011;7726;48.820;9.248;2022-12-07T04:26:28;7.87;;;6.33;;
15246;SDS011;7726;48.820;9.248;2022-12-07T04:28:55;6.97;;;6.03;;
15246;SDS011;7726;48.820;9.248;2022-12-07T04:31:22;7.03;;;5.97;;
15246;SDS011;7726;48.820;9.248;2022-12-07T04:33:49;8.40;;;5.67;;
15246;SDS011;7726;48.820;9.248;2022-12-07T04:36:16;9.30;;;6.57;;
15246;SDS011;7726;48.820;9.248;2022-12-07T04:38:46;7.40;;;5.70;;
15246;SDS011;7726;48.820;9.248;2022-12-07T04:41:13;8.00;;;6.50;;
15246;SDS011;7726;48.820;9.248;2022-12-07T04:43:40;9.37;;;6.23;;
15246;SDS011;7726;48.820;9.248;2022-12-07T04:46:07;7.67;;;6.27;;
15246;SDS011;7726;48.820;9.248;2022-12-07T04:48:34;8.20;;;5.90;;
15246;SDS011;7726;48.820;9.248;2022-12-07T04:51:02;8.13;;;6.17;;
15246;SDS011;7726;48.820;9.248;2022-12-07T04:53:29;7.07;;;6.03;;
15246;SDS011;7726;48.820;9.248;2022-12-07T04:55:58;8.30;;;6.00;;
15246;SDS011;7726;48.820;9.248;2022-12-07T04:58:26;7.20;;;5.73;;
15246;SDS011;7726;48.820;9.248;2022-12-07T05:00:53;7.87;;;5.83;;
15246;SDS011;7726;48.820;9.248;2022-12-07T05:03:20;6.07;;;5.23;;
15246;SDS011;7726;48.820;9.248;2022-12-07T05:05:48;8.40;;;5.67;;
15246;SDS011;7726;48.820;9.248;2022-12-07T05:08:15;6.53;;;5.47;;
15246;SDS011;7726;48.820;9.248;2022-12-07T05:10:42;6.97;;;5.43;;
15246;SDS011;7726;48.820;9.248;2022-12-07T05:13:10;11.23;;;5.73;;
15246;SDS011;7726;48.820;9.248;2022-12-07T05:15:37;6.20;;;5.60;;
15246;SDS011;7726;48.820;9.248;2022-12-07T05:18:04;7.90;;;5.77;;
15246;SDS011;7726;48.820;9.248;2022-12-07T05:20:32;8.37;;;5.70;;
15246;SDS011;7726;48.820;9.248;2022-12-07T05:22:59;7.70;;;5.77;;
15246;SDS011;7726;48.820;9.248;2022-12-07T05:25:26;7.50;;;5.33;;
15246;SDS011;7726;48.820;9.248;2022-12-07T05:27:54;6.93;;;5.20;;
15246;SDS011;7726;48.820;9.248;2022-12-07T05:30:23;8.43;;;6.27;;
15246;SDS011;7726;48.820;9.248;2022-12-07T05:32:50;8.37;;;6.00;;
15246;SDS011;7726;48.820;9.248;2022-12-07T05:35:17;7.27;;;5.63;;
15246;SDS011;7726;48.820;9.248;2022-12-07T05:37:45;8.43;;;6.17;;
15246;SDS011;7726;48.820;9.248;2022-12-07T05:40:13;9.83;;;6.23;;
15246;SDS011;7726;48.820;9.248;2022-12-07T05:42:41;7.87;;;6.50;;
15246;SDS011;7726;48.820;9.248;2022-12-07T05:45:08;8.90;;;5.97;;
15246;SDS011;7726;48.820;9.248;2022-12-07T05:47:37;8.37;;;5.97;;
15246;SDS011;7726;48.820;9.248;2022-12-07T05:50:05;8.07;;;6.50;;
15246;SDS011;7726;48.820;9.248;2022-12-07T05:52:32;6.97;;;5.90;;
15246;SDS011;7726;48.820;9.248;2022-12-07T05:54:59;7.67;;;6.10;;
15246;SDS011;7726;48.820;9.248;2022-12-07T05:57:26;9.77;;;6.53;;
15246;SDS011;7726;48.820;9.248;2022-12-07T05:59:53;7.43;;;5.87;;
15246;SDS011;7726;48.820;9.248;2022-12-07T06:02:20;6.63;;;5.73;;
15246;SDS011;7726;48.820;9.248;2022-12-07T06:04:48;8.93;;;6.63;;
15246;SDS011;7726;48.820;9.248;2022-12-07T06:07:15;8.03;;;6.67;;
15246;SDS011;7726;48.820;9.248;2022-12-07T06:09:43;7.80;;;5.97;;
15246;SDS011;7726;48.820;9.248;2022-12-07T06:12:10;10.40;;;6.97;;
15246;SDS011;7726;48.820;9.248;2022-12-07T06:14:55;7.73;;;6.47;;
15246;SDS011;7726;48.820;9.248;2022-12-07T06:17:22;11.13;;;6.40;;
15246;SDS011;7726;48.820;9.248;2022-12-07T06:19:50;7.50;;;6.43;;
15246;SDS011;7726;48.820;9.248;2022-12-07T06:22:18;9.77;;;6.43;;
15246;SDS011;7726;48.820;9.248;2022-12-07T06:24:45;8.07;;;6.33;;
15246;SDS011;7726;48.820;9.248;2022-12-07T06:27:12;8.47;;;6.60;;
15246;SDS011;7726;48.820;9.248;2022-12-07T06:29:39;10.60;;;7.23;;
15246;SDS011;7726;48.820;9.248;2022-12-07T06:32:06;11.70;;;7.77;;
15246;SDS011;7726;48.820;9.248;2022-12-07T06:34:34;11.73;;;8.10;;
15246;SDS011;7726;48.820;9.248;2022-12-07T06:37:02;10.10;;;7.33;;
15246;SDS011;7726;48.820;9.248;2022-12-07T06:39:29;9.20;;;7.13;;
15246;SDS011;7726;48.820;9.248;2022-12-07T06:41:56;9.07;;;7.00;;
15246;SDS011;7726;48.820;9.248;2022-12-07T06:44:23;9.87;;;8.07;;
15246;SDS011;7726;48.820;9.248;2022-12-07T06:46:51;19.20;;;10.00;;
15246;SDS011;7726;48.820;9.248;2022-12-07T06:49:18;12.20;;;8.83;;
15246;SDS011;7726;48.820;9.248;2022-12-07T06:51:45;10.83;;;7.43;;
15246;SDS011;7726;48.820;9.248;2022-12-07T06:54:14;8.77;;;7.50;;
15246;SDS011;7726;48.820;9.248;2022-12-07T06:56:41;8.60;;;7.53;;
15246;SDS011;7726;48.820;9.248;2022-12-07T06:59:09;9.37;;;7.33;;
15246;SDS011;7726;48.820;9.248;2022-12-07T07:01:36;9.17;;;6.93;;
15246;SDS011;7726;48.820;9.248;2022-12-07T07:04:03;9.87;;;7.40;;
15246;SDS011;7726;48.820;9.248;2022-12-07T07:06:30;9.57;;;7.43;;
15246;SDS011;7726;48.820;9.248;2022-12-07T07:08:57;10.23;;;7.60;;
15246;SDS011;7726;48.820;9.248;2022-12-07T07:11:26;14.73;;;7.93;;
15246;SDS011;7726;48.820;9.248;2022-12-07T07:13:53;9.90;;;7.87;;
15246;SDS011;7726;48.820;9.248;2022-12-07T07:16:22;12.80;;;8.47;;
15246;SDS011;7726;48.820;9.248;2022-12-07T07:18:49;8.73;;;7.20;;
15246;SDS011;7726;48.820;9.248;2022-12-07T07:21:16;9.57;;;6.77;;
15246;SDS011;7726;48.820;9.248;2022-12-07T07:23:44;8.40;;;6.70;;
15246;SDS011;7726;48.820;9.248;2022-12-07T07:26:11;6.77;;;5.67;;
15246;SDS011;7726;48.820;9.248;2022-12-07T07:28:39;9.03;;;5.80;;
15246;SDS011;7726;48.820;9.248;2022-12-07T07:31:06;6.43;;;5.00;;
15246;SDS011;7726;48.820;9.248;2022-12-07T07:33:33;7.07;;;5.73;;
15246;SDS011;7726;48.820;9.248;2022-12-07T07:36:00;9.93;;;5.67;;
15246;SDS011;7726;48.820;9.248;2022-12-07T07:38:28;9.10;;;5.50;;
15246;SDS011;7726;48.820;9.248;2022-12-07T07:40:55;6.37;;;5.67;;
15246;SDS011;7726;48.820;9.248;2022-12-07T07:43:22;8.47;;;6.27;;
15246;SDS011;7726;48.820;9.248;2022-12-07T07:45:50;7.03;;;5.97;;
15246;SDS011;7726;48.820;9.248;2022-12-07T07:48:17;9.00;;;6.20;;
15246;SDS011;7726;48.820;9.248;2022-12-07T07:50:44;9.00;;;6.20;;
15246;SDS011;7726;48.820;9.248;2022-12-07T07:53:12;10.20;;;6.33;;
15246;SDS011;7726;48.820;9.248;2022-12-07T07:55:39;9.13;;;5.97;;
15246;SDS011;7726;48.820;9.248;2022-12-07T07:58:06;8.37;;;6.27;;
15246;SDS011;7726;48.820;9.248;2022-12-07T08:00:33;8.83;;;5.73;;
15246;SDS011;7726;48.820;9.248;2022-12-07T08:03:01;8.00;;;5.60;;
15246;SDS011;7726;48.820;9.248;2022-12-07T08:05:28;11.27;;;5.93;;
15246;SDS011;7726;48.820;9.248;2022-12-07T08:07:57;9.50;;;5.73;;
15246;SDS011;7726;48.820;9.248;2022-12-07T08:10:24;10.67;;;6.60;;
15246;SDS011;7726;48.820;9.248;2022-12-07T08:12:51;10.07;;;6.00;;
15246;SDS011;7726;48.820;9.248;2022-12-07T08:15:36;7.23;;;5.57;;
15246;SDS011;7726;48.820;9.248;2022-12-07T08:18:05;7.37;;;5.17;;
15246;SDS011;7726;48.820;9.248;2022-12-07T08:20:32;6.87;;;4.73;;
15246;SDS011;7726;48.820;9.248;2022-12-07T08:23:00;5.80;;;4.90;;
15246;SDS011;7726;48.820;9.248;2022-12-07T08:25:27;5.33;;;3.97;;
15246;SDS011;7726;48.820;9.248;2022-12-07T08:27:54;6.70;;;4.50;;
15246;SDS011;7726;48.820;9.248;2022-12-07T08:30:22;6.93;;;4.80;;
15246;SDS011;7726;48.820;9.248;2022-12-07T08:32:49;5.10;;;4.60;;
15246;SDS011;7726;48.820;9.248;2022-12-07T08:35:18;4.67;;;3.80;;
15246;SDS011;7726;48.820;9.248;2022-12-07T08:37:46;6.13;;;4.20;;
15246;SDS011;7726;48.820;9.248;2022-12-07T08:40:13;5.50;;;4.27;;
15246;SDS011;7726;48.820;9.248;2022-12-07T08:42:41;5.43;;;4.37;;
15246;SDS011;7726;48.820;9.248;2022-12-07T08:45:10;5.63;;;4.40;;
15246;SDS011;7726;48.820;9.248;2022-12-07T08:47:38;6.43;;;4.43;;
15246;SDS011;7726;48.820;9.248;2022-12-07T08:50:07;8.27;;;4.60;;
15246;SDS011;7726;48.820;9.248;2022-12-07T08:52:37;7.97;;;4.37;;
15246;SDS011;7726;48.820;9.248;2022-12-07T08:55:06;5.20;;;4.43;;
15246;SDS011;7726;48.820;9.248;2022-12-07T08:57:33;7.53;;;4.47;;
15246;SDS011;7726;48.820;9.248;2022-12-07T09:00:01;4.90;;;4.30;;
15246;SDS011;7726;48.820;9.248;2022-12-07T09:02:28;7.90;;;4.97;;
15246;SDS011;7726;48.820;9.248;2022-12-07T09:04:56;5.47;;;4.20;;
15246;SDS011;7726;48.820;9.248;2022-12-07T09:07:24;4.37;;;3.87;;
15246;SDS011;7726;48.820;9.248;2022-12-07T09:09:53;5.33;;;4.00;;
15246;SDS011;7726;48.820;9.248;2022-12-07T09:12:21;4.70;;;4.17;;
15246;SDS011;7726;48.820;9.248;2022-12-07T09:14:48;5.33;;;4.20;;
15246;SDS011;7726;48.820;9.248;2022-12-07T09:17:15;5.87;;;4.57;;
15246;SDS011;7726;48.820;9.248;2022-12-07T09:19:42;5.07;;;4.37;;
15246;SDS011;7726;48.820;9.248;2022-12-07T09:22:09;6.47;;;4.20;;
15246;SDS011;7726;48.820;9.248;2022-12-07T09:24:36;4.77;;;4.27;;
15246;SDS011;7726;48.820;9.248;2022-12-07T09:27:05;5.20;;;4.47;;
15246;SDS011;7726;48.820;9.248;2022-12-07T09:29:32;6.70;;;4.53;;
15246;SDS011;7726;48.820;9.248;2022-12-07T09:31:59;5.70;;;4.20;;
15246;SDS011;7726;48.820;9.248;2022-12-07T09:34:26;5.73;;;4.03;;
15246;SDS011;7726;48.820;9.248;2022-12-07T09:36:54;4.97;;;4.13;;
15246;SDS011;7726;48.820;9.248;2022-12-07T09:39:21;5.43;;;4.03;;
15246;SDS011;7726;48.820;9.248;2022-12-07T09:41:48;7.20;;;4.00;;
15246;SDS011;7726;48.820;9.248;2022-12-07T09:44:19;8.33;;;4.43;;
15246;SDS011;7726;48.820;9.248;2022-12-07T09:46:47;6.27;;;3.70;;
15246;SDS011;7726;48.820;9.248;2022-12-07T09:49:16;6.43;;;4.13;;
15246;SDS011;7726;48.820;9.248;2022-12-07T09:51:44;4.80;;;3.93;;
15246;SDS011;7726;48.820;9.248;2022-12-07T09:54:12;4.80;;;3.43;;
15246;SDS011;7726;48.820;9.248;2022-12-07T09:56:40;3.87;;;3.10;;
15246;SDS011;7726;48.820;9.248;2022-12-07T09:59:09;4.93;;;3.03;;
15246;SDS011;7726;48.820;9.248;2022-12-07T10:01:40;3.63;;;3.00;;
15246;SDS011;7726;48.820;9.248;2022-12-07T10:04:09;2.90;;;2.60;;
15246;SDS011;7726;48.820;9.248;2022-12-07T10:06:37;3.77;;;3.07;;
15246;SDS011;7726;48.820;9.248;2022-12-07T10:09:08;4.70;;;3.30;;
15246;SDS011;7726;48.820;9.248;2022-12-07T10:11:36;3.70;;;3.10;;
15246;SDS011;7726;48.820;9.248;2022-12-07T10:14:23;5.00;;;3.50;;
15246;SDS011;7726;48.820;9.248;2022-12-07T10:16:52;5.77;;;3.77;;
15246;SDS011;7726;48.820;9.248;2022-12-07T10:19:22;4.23;;;3.30;;
15246;SDS011;7726;48.820;9.248;2022-12-07T10:22:07;4.53;;;3.07;;
15246;SDS011;7726;48.820;9.248;2022-12-07T10:24:36;4.13;;;2.90;;
15246;SDS011;7726;48.820;9.248;2022-12-07T10:27:10;3.17;;;2.87;;
15246;SDS011;7726;48.820;9.248;2022-12-07T10:29:46;3.43;;;3.10;;
15246;SDS011;7726;48.820;9.248;2022-12-07T10:32:26;3.17;;;2.87;;
15246;SDS011;7726;48.820;9.248;2022-12-07T10:35:15;4.60;;;3.10;;
15246;SDS011;7726;48.820;9.248;2022-12-07T10:37:44;3.00;;;2.70;;
15246;SDS011;7726;48.820;9.248;2022-12-07T10:40:23;3.70;;;3.33;;
15246;SDS011;7726;48.820;9.248;2022-12-07T10:43:00;3.20;;;2.90;;
15246;SDS011;7726;48.820;9.248;2022-12-07T10:45:27;3.80;;;3.10;;
15246;SDS011;7726;48.820;9.248;2022-12-07T10:47:58;4.70;;;3.20;;
15246;SDS011;7726;48.820;9.248;2022-12-07T10:50:34;3.43;;;3.13;;
15246;SDS011;7726;48.820;9.248;2022-12-07T10:53:14;3.63;;;3.33;;
15246;SDS011;7726;48.820;9.248;2022-12-07T10:55:48;5.40;;;3.03;;
15246;SDS011;7726;48.820;9.248;2022-12-07T10:58:31;3.30;;;3.00;;
15246;SDS011;7726;48.820;9.248;2022-12-07T11:01:04;3.63;;;3.07;;
15246;SDS011;7726;48.820;9.248;2022-12-07T11:03:38;3.60;;;2.83;;
15246;SDS011;7726;48.820;9.248;2022-12-07T11:06:10;3.43;;;3.10;;
15246;SDS011;7726;48.820;9.248;2022-12-07T11:08:44;4.47;;;3.17;;
15246;SDS011;7726;48.820;9.248;2022-12-07T11:11:14;3.70;;;3.00;;
15246;SDS011;7726;48.820;9.248;2022-12-07T11:13:44;3.40;;;3.10;;
15246;SDS011;7726;48.820;9.248;2022-12-07T11:16:17;3.03;;;2.73;;
15246;SDS011;7726;48.820;9.248;2022-12-07T11:18:51;4.57;;;3.17;;
15246;SDS011;7726;48.820;9.248;2022-12-07T11:21:21;3.77;;;3.30;;
15246;SDS011;7726;48.820;9.248;2022-12-07T11:23:52;4.23;;;2.90;;
15246;SDS011;7726;48.820;9.248;2022-12-07T11:26:27;3.60;;;2.80;;
15246;SDS011;7726;48.820;9.248;2022-12-07T11:29:01;4.27;;;2.80;;
15246;SDS011;7726;48.820;9.248;2022-12-07T11:31:32;4.57;;;2.60;;
15246;SDS011;7726;48.820;9.248;2022-12-07T11:34:04;3.33;;;2.97;;
15246;SDS011;7726;48.820;9.248;2022-12-07T11:36:35;3.70;;;2.87;;
15246;SDS011;7726;48.820;9.248;2022-12-07T11:39:11;2.73;;;2.47;;
15246;SDS011;7726;48.820;9.248;2022-12-07T11:41:42;2.60;;;2.40;;
15246;SDS011;7726;48.820;9.248;2022-12-07T11:44:13;3.10;;;2.60;;
15246;SDS011;7726;48.820;9.248;2022-12-07T11:46:45;3.23;;;2.90;;
15246;SDS011;7726;48.820;9.248;2022-12-07T11:49:17;3.03;;;2.73;;
15246;SDS011;7726;48.820;9.248;2022-12-07T11:51:48;3.40;;;3.10;;
15246;SDS011;7726;48.820;9.248;2022-12-07T11:54:17;3.47;;;3.17;;
15246;SDS011;7726;48.820;9.248;2022-12-07T11:56:46;3.20;;;2.90;;
15246;SDS011;7726;48.820;9.248;2022-12-07T11:59:16;6.93;;;3.60;;
15246;SDS011;7726;48.820;9.248;2022-12-07T12:01:48;4.40;;;3.53;;
15246;SDS011;7726;48.820;9.248;2022-12-07T12:04:23;5.10;;;4.03;;
15246;SDS011;7726;48.820;9.248;2022-12-07T12:06:55;4.40;;;3.80;;
15246;SDS011;7726;48.820;9.248;2022-12-07T12:09:24;7.00;;;4.17;;
15246;SDS011;7726;48.820;9.248;2022-12-07T12:14:42;4.93;;;4.27;;
15246;SDS011;7726;48.820;9.248;2022-12-07T12:17:37;5.50;;;4.93;;
15246;SDS011;7726;48.820;9.248;2022-12-07T12:20:16;5.20;;;4.70;;
15246;SDS011;7726;48.820;9.248;2022-12-07T12:22:46;5.63;;;4.23;;
15246;SDS011;7726;48.820;9.248;2022-12-07T12:25:17;4.70;;;4.00;;
15246;SDS011;7726;48.820;9.248;2022-12-07T12:27:47;5.93;;;5.10;;
15246;SDS011;7726;48.820;9.248;2022-12-07T12:30:26;5.00;;;4.37;;
15246;SDS011;7726;48.820;9.248;2022-12-07T12:33:01;5.23;;;4.73;;
15246;SDS011;7726;48.820;9.248;2022-12-07T12:38:24;5.73;;;4.53;;
15246;SDS011;7726;48.820;9.248;2022-12-07T12:40:52;5.83;;;4.30;;
15246;SDS011;7726;48.820;9.248;2022-12-07T12:48:52;5.97;;;4.00;;
15246;SDS011;7726;48.820;9.248;2022-12-07T12:51:37;6.07;;;4.50;;
15246;SDS011;7726;48.820;9.248;2022-12-07T12:54:10;6.43;;;4.40;;
15246;SDS011;7726;48.820;9.248;2022-12-07T12:56:40;5.10;;;4.60;;
15246;SDS011;7726;48.820;9.248;2022-12-07T13:02:09;6.33;;;4.80;;
15246;SDS011;7726;48.820;9.248;2022-12-07T13:04:49;4.67;;;4.17;;
15246;SDS011;7726;48.820;9.248;2022-12-07T13:10:08;5.73;;;4.03;;
15246;SDS011;7726;48.820;9.248;2022-12-07T13:12:54;4.40;;;4.00;;
15246;SDS011;7726;48.820;9.248;2022-12-07T13:15:32;4.87;;;4.00;;
15246;SDS011;7726;48.820;9.248;2022-12-07T13:18:00;4.40;;;4.00;;
15246;SDS011;7726;48.820;9.248;2022-12-07T13:20:44;4.37;;;3.97;;
15246;SDS011;7726;48.820;9.248;2022-12-07T13:23:12;5.90;;;4.40;;
15246;SDS011;7726;48.820;9.248;2022-12-07T13:25:43;4.87;;;4.33;;
15246;SDS011;7726;48.820;9.248;2022-12-07T13:28:14;4.73;;;4.07;;
15246;SDS011;7726;48.820;9.248;2022-12-07T13:30:43;5.47;;;4.47;;
15246;SDS011;7726;48.820;9.248;2022-12-07T13:33:12;5.40;;;4.60;;
15246;SDS011;7726;48.820;9.248;2022-12-07T13:35:39;4.87;;;4.10;;
15246;SDS011;7726;48.820;9.248;2022-12-07T13:38:15;6.03;;;4.10;;
15246;SDS011;7726;48.820;9.248;2022-12-07T13:41:00;5.57;;;4.97;;
15246;SDS011;7726;48.820;9.248;2022-12-07T13:43:27;5.47;;;4.33;;
15246;SDS011;7726;48.820;9.248;2022-12-07T13:45:55;6.20;;;4.87;;
15246;SDS011;7726;48.820;9.248;2022-12-07T13:48:24;5.77;;;4.73;;
15246;SDS011;7726;48.820;9.248;2022-12-07T13:50:55;6.77;;;5.10;;
15246;SDS011;7726;48.820;9.248;2022-12-07T13:53:22;6.33;;;4.03;;
15246;SDS011;7726;48.820;9.248;2022-12-07T13:55:53;6.80;;;4.97;;
15246;SDS011;7726;48.820;9.248;2022-12-07T13:58:21;6.00;;;5.30;;
15246;SDS011;7726;48.820;9.248;2022-12-07T14:00:49;7.10;;;5.33;;
15246;SDS011;7726;48.820;9.248;2022-12-07T14:03:25;7.43;;;5.30;;
15246;SDS011;7726;48.820;9.248;2022-12-07T14:06:03;5.73;;;4.60;;
15246;SDS011;7726;48.820;9.248;2022-12-07T14:08:31;6.03;;;5.00;;
15246;SDS011;7726;48.820;9.248;2022-12-07T14:10:58;6.63;;;4.97;;
15246;SDS011;7726;48.820;9.248;2022-12-07T14:13:28;7.47;;;5.53;;
15246;SDS011;7726;48.820;9.248;2022-12-07T14:15:55;6.83;;;4.87;;
15246;SDS011;7726;48.820;9.248;2022-12-07T14:18:25;7.17;;;5.33;;
15246;SDS011;7726;48.820;9.248;2022-12-07T14:21:02;6.70;;;4.70;;
15246;SDS011;7726;48.820;9.248;2022-12-07T14:23:29;6.00;;;5.00;;
15246;SDS011;7726;48.820;9.248;2022-12-07T14:26:04;6.50;;;5.27;;
15246;SDS011;7726;48.820;9.248;2022-12-07T14:28:34;10.10;;;5.40;;
15246;SDS011;7726;48.820;9.248;2022-12-07T14:31:02;8.20;;;5.27;;
15246;SDS011;7726;48.820;9.248;2022-12-07T14:33:29;7.90;;;5.23;;
15246;SDS011;7726;48.820;9.248;2022-12-07T14:35:57;7.67;;;4.93;;
15246;SDS011;7726;48.820;9.248;2022-12-07T14:38:25;8.63;;;4.93;;
15246;SDS011;7726;48.820;9.248;2022-12-07T14:40:52;7.30;;;5.07;;
15246;SDS011;7726;48.820;9.248;2022-12-07T14:43:41;6.07;;;4.60;;
15246;SDS011;7726;48.820;9.248;2022-12-07T14:46:09;6.77;;;5.10;;
15246;SDS011;7726;48.820;9.248;2022-12-07T14:48:36;9.50;;;5.13;;
15246;SDS011;7726;48.820;9.248;2022-12-07T14:51:03;6.97;;;5.00;;
15246;SDS011;7726;48.820;9.248;2022-12-07T14:53:34;6.90;;;5.20;;
15246;SDS011;7726;48.820;9.248;2022-12-07T14:56:02;7.23;;;5.50;;
15246;SDS011;7726;48.820;9.248;2022-12-07T14:58:30;7.93;;;6.20;;
15246;SDS011;7726;48.820;9.248;2022-12-07T15:01:00;5.87;;;5.17;;
15246;SDS011;7726;48.820;9.248;2022-12-07T15:03:27;9.10;;;5.77;;
15246;SDS011;7726;48.820;9.248;2022-12-07T15:05:54;8.23;;;5.37;;
15246;SDS011;7726;48.820;9.248;2022-12-07T15:08:21;6.83;;;5.37;;
15246;SDS011;7726;48.820;9.248;2022-12-07T15:10:49;10.70;;;5.93;;
15246;SDS011;7726;48.820;9.248;2022-12-07T15:13:16;7.40;;;5.60;;
15246;SDS011;7726;48.820;9.248;2022-12-07T15:16:02;8.47;;;5.90;;
15246;SDS011;7726;48.820;9.248;2022-12-07T15:18:29;9.93;;;6.23;;
15246;SDS011;7726;48.820;9.248;2022-12-07T15:20:57;9.70;;;6.27;;
15246;SDS011;7726;48.820;9.248;2022-12-07T15:23:24;8.33;;;6.50;;
15246;SDS011;7726;48.820;9.248;2022-12-07T15:25:51;8.47;;;6.53;;
15246;SDS011;7726;48.820;9.248;2022-12-07T15:28:18;9.27;;;6.83;;
15246;SDS011;7726;48.820;9.248;2022-12-07T15:30:45;14.53;;;7.20;;
15246;SDS011;7726;48.820;9.248;2022-12-07T15:33:14;9.37;;;7.00;;
15246;SDS011;7726;48.820;9.248;2022-12-07T15:35:41;11.30;;;7.20;;